sensor_id;sensor_type;location;lat;lon;timestamp;temperature;humidity
5870;DHT22;2961;47.702;9.410;2023-04-23T00:01:16;11.50;99.90
5870;DHT22;2961;47.702;9.410;2023-04-23T00:03:45;11.50;99.90
5870;DHT22;2961;47.702;9.410;2023-04-23T00:06:14;11.50;99.90
5870;DHT22;2961;47.702;9.410;2023-04-23T00:08:42;11.50;99.90
5870;DHT22;2961;47.702;9.410;2023-04-23T00:11:11;11.50;99.90
5870;DHT22;2961;47.702;9.410;2023-04-23T00:13:38;11.50;99.90
5870;DHT22;2961;47.702;9.410;2023-04-23T00:16:06;11.50;99.90
5870;DHT22;2961;47.702;9.410;2023-04-23T00:18:35;11.60;99.90
5870;DHT22;2961;47.702;9.410;2023-04-23T00:21:02;11.60;99.90
5870;DHT22;2961;47.702;9.410;2023-04-23T00:23:29;11.60;99.90
5870;DHT22;2961;47.702;9.410;2023-04-23T00:25:55;11.60;99.90
5870;DHT22;2961;47.702;9.410;2023-04-23T00:28:24;11.70;99.90
5870;DHT22;2961;47.702;9.410;2023-04-23T00:30:50;11.60;99.90
5870;DHT22;2961;47.702;9.410;2023-04-23T00:33:17;11.40;99.90
5870;DHT22;2961;47.702;9.410;2023-04-23T00:35:44;11.30;99.90
5870;DHT22;2961;47.702;9.410;2023-04-23T00:38:11;11.30;99.90
5870;DHT22;2961;47.702;9.410;2023-04-23T00:40:38;11.30;99.90
5870;DHT22;2961;47.702;9.410;2023-04-23T00:43:05;11.30;99.90
5870;DHT22;2961;47.702;9.410;2023-04-23T00:45:34;11.30;99.90
5870;DHT22;2961;47.702;9.410;2023-04-23T00:48:01;11.20;99.90
5870;DHT22;2961;47.702;9.410;2023-04-23T00:50:28;11.20;99.90
5870;DHT22;2961;47.702;9.410;2023-04-23T00:52:55;11.10;99.90
5870;DHT22;2961;47.702;9.410;2023-04-23T00:55:21;11.10;99.90
5870;DHT22;2961;47.702;9.410;2023-04-23T00:57:49;11.10;99.90
5870;DHT22;2961;47.702;9.410;2023-04-23T01:00:16;11.10;99.90
5870;DHT22;2961;47.702;9.410;2023-04-23T01:02:46;11.10;99.90
5870;DHT22;2961;47.702;9.410;2023-04-23T01:05:15;11.00;99.90
5870;DHT22;2961;47.702;9.410;2023-04-23T01:07:43;11.10;99.90
5870;DHT22;2961;47.702;9.410;2023-04-23T01:10:10;11.00;99.90
5870;DHT22;2961;47.702;9.410;2023-04-23T01:12:37;11.10;99.90
5870;DHT22;2961;47.702;9.410;2023-04-23T01:15:05;11.10;99.90
5870;DHT22;2961;47.702;9.410;2023-04-23T01:17:33;11.00;99.90
5870;DHT22;2961;47.702;9.410;2023-04-23T01:20:01;11.00;99.90
5870;DHT22;2961;47.702;9.410;2023-04-23T01:22:32;11.00;99.90
5870;DHT22;2961;47.702;9.410;2023-04-23T01:24:59;11.00;99.90
5870;DHT22;2961;47.702;9.410;2023-04-23T01:27:26;11.00;99.90
5870;DHT22;2961;47.702;9.410;2023-04-23T01:29:53;11.00;99.90
5870;DHT22;2961;47.702;9.410;2023-04-23T01:32:20;10.90;99.90
5870;DHT22;2961;47.702;9.410;2023-04-23T01:34:48;11.00;99.90
5870;DHT22;2961;47.702;9.410;2023-04-23T01:37:18;11.00;99.90
5870;DHT22;2961;47.702;9.410;2023-04-23T01:39:47;11.00;99.90
5870;DHT22;2961;47.702;9.410;2023-04-23T01:42:14;10.90;99.90
5870;DHT22;2961;47.702;9.410;2023-04-23T01:44:41;10.90;99.90
5870;DHT22;2961;47.702;9.410;2023-04-23T01:47:08;10.90;99.90
5870;DHT22;2961;47.702;9.410;2023-04-23T01:49:35;10.90;99.90
5870;DHT22;2961;47.702;9.410;2023-04-23T01:52:02;10.80;99.90
5870;DHT22;2961;47.702;9.410;2023-04-23T01:54:29;10.80;99.90
5870;DHT22;2961;47.702;9.410;2023-04-23T01:56:57;10.80;99.90
5870;DHT22;2961;47.702;9.410;2023-04-23T01:59:24;10.80;99.90
5870;DHT22;2961;47.702;9.410;2023-04-23T02:01:51;10.80;99.90
5870;DHT22;2961;47.702;9.410;2023-04-23T02:04:18;10.80;99.90
5870;DHT22;2961;47.702;9.410;2023-04-23T02:06:47;10.80;99.90
5870;DHT22;2961;47.702;9.410;2023-04-23T02:09:14;10.80;99.90
5870;DHT22;2961;47.702;9.410;2023-04-23T02:11:41;10.80;99.90
5870;DHT22;2961;47.702;9.410;2023-04-23T02:14:10;10.70;99.90
5870;DHT22;2961;47.702;9.410;2023-04-23T02:16:36;10.70;99.90
5870;DHT22;2961;47.702;9.410;2023-04-23T02:19:04;10.80;99.90
5870;DHT22;2961;47.702;9.410;2023-04-23T02:21:31;10.80;99.90
5870;DHT22;2961;47.702;9.410;2023-04-23T02:23:57;10.80;99.90
5870;DHT22;2961;47.702;9.410;2023-04-23T02:26:24;10.70;99.90
5870;DHT22;2961;47.702;9.410;2023-04-23T02:28:53;10.70;99.90
5870;DHT22;2961;47.702;9.410;2023-04-23T02:31:21;10.70;99.90
5870;DHT22;2961;47.702;9.410;2023-04-23T02:33:48;10.70;99.90
5870;DHT22;2961;47.702;9.410;2023-04-23T02:36:16;10.70;99.90
5870;DHT22;2961;47.702;9.410;2023-04-23T02:38:42;10.70;99.90
5870;DHT22;2961;47.702;9.410;2023-04-23T02:41:12;10.70;99.90
5870;DHT22;2961;47.702;9.410;2023-04-23T02:43:38;10.70;99.90
5870;DHT22;2961;47.702;9.410;2023-04-23T02:46:05;10.60;99.90
5870;DHT22;2961;47.702;9.410;2023-04-23T02:48:36;10.70;99.90
5870;DHT22;2961;47.702;9.410;2023-04-23T02:51:04;10.60;99.90
5870;DHT22;2961;47.702;9.410;2023-04-23T02:53:32;10.70;99.90
5870;DHT22;2961;47.702;9.410;2023-04-23T02:55:58;10.70;99.90
5870;DHT22;2961;47.702;9.410;2023-04-23T02:58:26;10.60;99.90
5870;DHT22;2961;47.702;9.410;2023-04-23T03:00:52;10.60;99.90
5870;DHT22;2961;47.702;9.410;2023-04-23T03:03:19;10.60;99.90
5870;DHT22;2961;47.702;9.410;2023-04-23T03:05:47;10.60;99.90
5870;DHT22;2961;47.702;9.410;2023-04-23T03:08:14;10.60;99.90
5870;DHT22;2961;47.702;9.410;2023-04-23T03:10:41;10.60;99.90
5870;DHT22;2961;47.702;9.410;2023-04-23T03:13:08;10.50;99.90
5870;DHT22;2961;47.702;9.410;2023-04-23T03:15:35;10.60;99.90
5870;DHT22;2961;47.702;9.410;2023-04-23T03:18:01;10.50;99.90
5870;DHT22;2961;47.702;9.410;2023-04-23T03:20:30;10.50;99.90
5870;DHT22;2961;47.702;9.410;2023-04-23T03:22:58;10.40;99.90
5870;DHT22;2961;47.702;9.410;2023-04-23T03:25:25;10.40;99.90
5870;DHT22;2961;47.702;9.410;2023-04-23T03:27:52;10.50;99.90
5870;DHT22;2961;47.702;9.410;2023-04-23T03:30:19;10.40;99.90
5870;DHT22;2961;47.702;9.410;2023-04-23T03:32:45;10.30;99.90
5870;DHT22;2961;47.702;9.410;2023-04-23T03:35:12;10.40;99.90
5870;DHT22;2961;47.702;9.410;2023-04-23T03:37:39;10.30;99.90
5870;DHT22;2961;47.702;9.410;2023-04-23T03:40:08;10.30;99.90
5870;DHT22;2961;47.702;9.410;2023-04-23T03:42:35;10.30;99.90
5870;DHT22;2961;47.702;9.410;2023-04-23T03:45:03;10.30;99.90
5870;DHT22;2961;47.702;9.410;2023-04-23T03:47:30;10.30;99.90
5870;DHT22;2961;47.702;9.410;2023-04-23T03:49:56;10.20;99.90
5870;DHT22;2961;47.702;9.410;2023-04-23T03:52:23;10.30;99.90
5870;DHT22;2961;47.702;9.410;2023-04-23T03:54:50;10.30;99.90
5870;DHT22;2961;47.702;9.410;2023-04-23T03:57:19;10.30;99.90
5870;DHT22;2961;47.702;9.410;2023-04-23T03:59:46;10.30;99.90
5870;DHT22;2961;47.702;9.410;2023-04-23T04:02:13;10.20;99.90
5870;DHT22;2961;47.702;9.410;2023-04-23T04:04:39;10.20;99.90
5870;DHT22;2961;47.702;9.410;2023-04-23T04:07:07;10.20;99.90
5870;DHT22;2961;47.702;9.410;2023-04-23T04:09:37;10.20;99.90
5870;DHT22;2961;47.702;9.410;2023-04-23T04:12:04;10.20;99.90
5870;DHT22;2961;47.702;9.410;2023-04-23T04:14:32;10.30;99.90
5870;DHT22;2961;47.702;9.410;2023-04-23T04:16:59;10.30;99.90
5870;DHT22;2961;47.702;9.410;2023-04-23T04:19:26;10.20;99.90
5870;DHT22;2961;47.702;9.410;2023-04-23T04:21:52;10.20;99.90
5870;DHT22;2961;47.702;9.410;2023-04-23T04:24:19;10.20;99.90
5870;DHT22;2961;47.702;9.410;2023-04-23T04:26:48;10.20;99.90
5870;DHT22;2961;47.702;9.410;2023-04-23T04:29:17;10.20;99.90
5870;DHT22;2961;47.702;9.410;2023-04-23T04:31:46;10.20;99.90
5870;DHT22;2961;47.702;9.410;2023-04-23T04:34:13;10.20;99.90
5870;DHT22;2961;47.702;9.410;2023-04-23T04:36:40;10.20;99.90
5870;DHT22;2961;47.702;9.410;2023-04-23T04:39:07;10.20;99.90
5870;DHT22;2961;47.702;9.410;2023-04-23T04:41:35;10.10;99.90
5870;DHT22;2961;47.702;9.410;2023-04-23T04:44:02;10.20;99.90
5870;DHT22;2961;47.702;9.410;2023-04-23T04:46:29;10.10;99.90
5870;DHT22;2961;47.702;9.410;2023-04-23T04:48:57;10.10;99.90
5870;DHT22;2961;47.702;9.410;2023-04-23T04:51:24;10.10;99.90
5870;DHT22;2961;47.702;9.410;2023-04-23T04:53:51;10.10;99.90
5870;DHT22;2961;47.702;9.410;2023-04-23T04:56:18;10.10;99.90
5870;DHT22;2961;47.702;9.410;2023-04-23T04:58:48;10.10;99.90
5870;DHT22;2961;47.702;9.410;2023-04-23T05:01:15;10.20;99.90
5870;DHT22;2961;47.702;9.410;2023-04-23T05:03:42;10.20;99.90
5870;DHT22;2961;47.702;9.410;2023-04-23T05:06:11;10.20;99.90
5870;DHT22;2961;47.702;9.410;2023-04-23T05:08:38;10.20;99.90
5870;DHT22;2961;47.702;9.410;2023-04-23T05:11:05;10.20;99.90
5870;DHT22;2961;47.702;9.410;2023-04-23T05:13:32;10.20;99.90
5870;DHT22;2961;47.702;9.410;2023-04-23T05:15:59;10.10;99.90
5870;DHT22;2961;47.702;9.410;2023-04-23T05:18:26;10.10;99.90
5870;DHT22;2961;47.702;9.410;2023-04-23T05:20:54;10.10;99.90
5870;DHT22;2961;47.702;9.410;2023-04-23T05:23:22;10.00;99.90
5870;DHT22;2961;47.702;9.410;2023-04-23T05:25:48;10.10;99.90
5870;DHT22;2961;47.702;9.410;2023-04-23T05:28:16;10.10;99.90
5870;DHT22;2961;47.702;9.410;2023-04-23T05:30:43;10.10;99.90
5870;DHT22;2961;47.702;9.410;2023-04-23T05:33:10;10.10;99.90
5870;DHT22;2961;47.702;9.410;2023-04-23T05:35:37;10.20;99.90
5870;DHT22;2961;47.702;9.410;2023-04-23T05:38:03;10.20;99.90
5870;DHT22;2961;47.702;9.410;2023-04-23T05:40:32;10.30;99.90
5870;DHT22;2961;47.702;9.410;2023-04-23T05:42:59;10.30;99.90
5870;DHT22;2961;47.702;9.410;2023-04-23T05:45:26;10.40;99.90
5870;DHT22;2961;47.702;9.410;2023-04-23T05:47:53;10.40;99.90
5870;DHT22;2961;47.702;9.410;2023-04-23T05:50:20;10.40;99.90
5870;DHT22;2961;47.702;9.410;2023-04-23T05:52:47;10.40;99.90
5870;DHT22;2961;47.702;9.410;2023-04-23T05:55:14;10.40;99.90
5870;DHT22;2961;47.702;9.410;2023-04-23T05:57:42;10.50;99.90
5870;DHT22;2961;47.702;9.410;2023-04-23T06:00:10;10.60;99.90
5870;DHT22;2961;47.702;9.410;2023-04-23T06:02:37;10.80;99.90
5870;DHT22;2961;47.702;9.410;2023-04-23T06:05:04;10.90;99.90
5870;DHT22;2961;47.702;9.410;2023-04-23T06:07:31;10.90;99.90
5870;DHT22;2961;47.702;9.410;2023-04-23T06:09:58;10.90;99.90
5870;DHT22;2961;47.702;9.410;2023-04-23T06:12:25;10.90;99.90
5870;DHT22;2961;47.702;9.410;2023-04-23T06:14:53;11.00;99.90
5870;DHT22;2961;47.702;9.410;2023-04-23T06:17:20;11.00;99.90
5870;DHT22;2961;47.702;9.410;2023-04-23T06:19:47;11.10;99.90
5870;DHT22;2961;47.702;9.410;2023-04-23T06:22:14;11.20;99.90
5870;DHT22;2961;47.702;9.410;2023-04-23T06:24:41;11.20;99.90
5870;DHT22;2961;47.702;9.410;2023-04-23T06:27:07;11.30;99.90
5870;DHT22;2961;47.702;9.410;2023-04-23T06:29:34;11.20;99.90
5870;DHT22;2961;47.702;9.410;2023-04-23T06:32:03;11.30;99.90
5870;DHT22;2961;47.702;9.410;2023-04-23T06:34:29;11.20;99.90
5870;DHT22;2961;47.702;9.410;2023-04-23T06:36:57;11.30;99.90
5870;DHT22;2961;47.702;9.410;2023-04-23T06:39:24;11.30;99.90
5870;DHT22;2961;47.702;9.410;2023-04-23T06:41:51;11.40;99.90
5870;DHT22;2961;47.702;9.410;2023-04-23T06:44:18;11.50;99.90
5870;DHT22;2961;47.702;9.410;2023-04-23T06:46:45;11.40;99.90
5870;DHT22;2961;47.702;9.410;2023-04-23T06:49:13;11.30;99.90
5870;DHT22;2961;47.702;9.410;2023-04-23T06:51:40;11.20;99.90
5870;DHT22;2961;47.702;9.410;2023-04-23T06:54:07;11.30;99.90
5870;DHT22;2961;47.702;9.410;2023-04-23T06:56:34;11.40;99.90
5870;DHT22;2961;47.702;9.410;2023-04-23T06:59:00;11.50;99.90
5870;DHT22;2961;47.702;9.410;2023-04-23T07:01:27;11.40;99.90
5870;DHT22;2961;47.702;9.410;2023-04-23T07:03:55;11.70;99.90
5870;DHT22;2961;47.702;9.410;2023-04-23T07:06:23;11.90;99.90
5870;DHT22;2961;47.702;9.410;2023-04-23T07:08:50;12.00;99.90
5870;DHT22;2961;47.702;9.410;2023-04-23T07:11:17;12.30;99.90
5870;DHT22;2961;47.702;9.410;2023-04-23T07:13:44;12.30;99.90
5870;DHT22;2961;47.702;9.410;2023-04-23T07:16:11;12.50;99.90
5870;DHT22;2961;47.702;9.410;2023-04-23T07:18:38;12.70;99.90
5870;DHT22;2961;47.702;9.410;2023-04-23T07:21:04;12.70;99.90
5870;DHT22;2961;47.702;9.410;2023-04-23T07:23:32;12.50;99.90
5870;DHT22;2961;47.702;9.410;2023-04-23T07:25:59;12.50;99.90
5870;DHT22;2961;47.702;9.410;2023-04-23T07:28:26;12.50;99.90
5870;DHT22;2961;47.702;9.410;2023-04-23T07:30:53;12.50;99.90
5870;DHT22;2961;47.702;9.410;2023-04-23T07:33:20;12.50;99.90
5870;DHT22;2961;47.702;9.410;2023-04-23T07:35:47;12.70;99.90
5870;DHT22;2961;47.702;9.410;2023-04-23T07:38:14;13.00;99.90
5870;DHT22;2961;47.702;9.410;2023-04-23T07:40:42;13.00;99.90
5870;DHT22;2961;47.702;9.410;2023-04-23T07:43:09;12.90;99.90
5870;DHT22;2961;47.702;9.410;2023-04-23T07:45:36;12.90;99.90
5870;DHT22;2961;47.702;9.410;2023-04-23T07:48:03;12.90;99.90
5870;DHT22;2961;47.702;9.410;2023-04-23T07:50:30;13.00;99.90
5870;DHT22;2961;47.702;9.410;2023-04-23T07:52:57;13.10;99.90
5870;DHT22;2961;47.702;9.410;2023-04-23T07:55:24;13.30;99.90
5870;DHT22;2961;47.702;9.410;2023-04-23T07:57:52;13.50;99.90
5870;DHT22;2961;47.702;9.410;2023-04-23T08:00:19;13.60;99.90
5870;DHT22;2961;47.702;9.410;2023-04-23T08:02:46;13.90;99.90
5870;DHT22;2961;47.702;9.410;2023-04-23T08:05:13;14.10;99.90
5870;DHT22;2961;47.702;9.410;2023-04-23T08:07:40;14.30;99.90
5870;DHT22;2961;47.702;9.410;2023-04-23T08:10:07;14.90;99.90
5870;DHT22;2961;47.702;9.410;2023-04-23T08:12:34;15.10;99.90
5870;DHT22;2961;47.702;9.410;2023-04-23T08:15:03;15.30;99.90
5870;DHT22;2961;47.702;9.410;2023-04-23T08:17:30;15.50;99.90
5870;DHT22;2961;47.702;9.410;2023-04-23T08:19:56;15.60;99.90
5870;DHT22;2961;47.702;9.410;2023-04-23T08:22:23;15.60;99.90
5870;DHT22;2961;47.702;9.410;2023-04-23T08:24:50;15.40;99.90
5870;DHT22;2961;47.702;9.410;2023-04-23T08:27:17;15.50;99.90
5870;DHT22;2961;47.702;9.410;2023-04-23T08:29:44;15.90;99.90
5870;DHT22;2961;47.702;9.410;2023-04-23T08:32:12;16.30;99.90
5870;DHT22;2961;47.702;9.410;2023-04-23T08:34:39;16.50;99.90
5870;DHT22;2961;47.702;9.410;2023-04-23T08:37:05;16.70;99.90
5870;DHT22;2961;47.702;9.410;2023-04-23T08:39:33;16.70;99.90
5870;DHT22;2961;47.702;9.410;2023-04-23T08:42:04;16.70;99.90
5870;DHT22;2961;47.702;9.410;2023-04-23T08:44:37;16.60;99.90
5870;DHT22;2961;47.702;9.410;2023-04-23T08:47:06;16.30;99.90
5870;DHT22;2961;47.702;9.410;2023-04-23T08:49:40;16.50;99.90
5870;DHT22;2961;47.702;9.410;2023-04-23T08:52:14;16.70;99.90
5870;DHT22;2961;47.702;9.410;2023-04-23T08:54:45;16.80;99.90
5870;DHT22;2961;47.702;9.410;2023-04-23T08:57:13;16.90;99.90
5870;DHT22;2961;47.702;9.410;2023-04-23T08:59:41;16.80;99.90
5870;DHT22;2961;47.702;9.410;2023-04-23T09:02:08;17.00;99.90
5870;DHT22;2961;47.702;9.410;2023-04-23T09:04:37;17.00;99.90
5870;DHT22;2961;47.702;9.410;2023-04-23T09:07:04;17.30;99.90
5870;DHT22;2961;47.702;9.410;2023-04-23T09:09:32;17.30;99.90
5870;DHT22;2961;47.702;9.410;2023-04-23T09:12:00;17.30;99.90
5870;DHT22;2961;47.702;9.410;2023-04-23T09:14:27;17.20;99.90
5870;DHT22;2961;47.702;9.410;2023-04-23T09:16:54;17.20;99.90
5870;DHT22;2961;47.702;9.410;2023-04-23T09:19:20;17.20;99.90
5870;DHT22;2961;47.702;9.410;2023-04-23T09:21:50;17.30;99.90
5870;DHT22;2961;47.702;9.410;2023-04-23T09:24:21;17.20;99.90
5870;DHT22;2961;47.702;9.410;2023-04-23T09:26:49;17.10;99.90
5870;DHT22;2961;47.702;9.410;2023-04-23T09:29:17;17.20;99.90
5870;DHT22;2961;47.702;9.410;2023-04-23T09:31:45;17.30;99.90
5870;DHT22;2961;47.702;9.410;2023-04-23T09:34:14;17.80;99.90
5870;DHT22;2961;47.702;9.410;2023-04-23T09:36:42;18.30;99.90
5870;DHT22;2961;47.702;9.410;2023-04-23T09:39:15;18.60;99.90
5870;DHT22;2961;47.702;9.410;2023-04-23T09:41:42;18.70;99.90
5870;DHT22;2961;47.702;9.410;2023-04-23T09:44:10;18.70;99.90
5870;DHT22;2961;47.702;9.410;2023-04-23T09:46:39;18.60;99.90
5870;DHT22;2961;47.702;9.410;2023-04-23T09:49:07;18.70;99.90
5870;DHT22;2961;47.702;9.410;2023-04-23T09:51:35;18.70;99.90
5870;DHT22;2961;47.702;9.410;2023-04-23T09:54:07;18.10;99.90
5870;DHT22;2961;47.702;9.410;2023-04-23T09:56:37;17.90;99.90
5870;DHT22;2961;47.702;9.410;2023-04-23T09:59:18;18.10;99.90
5870;DHT22;2961;47.702;9.410;2023-04-23T10:01:45;18.10;99.90
5870;DHT22;2961;47.702;9.410;2023-04-23T10:04:13;17.80;99.90
5870;DHT22;2961;47.702;9.410;2023-04-23T10:06:43;17.80;99.90
5870;DHT22;2961;47.702;9.410;2023-04-23T10:09:10;17.90;99.90
5870;DHT22;2961;47.702;9.410;2023-04-23T10:11:38;18.10;99.90
5870;DHT22;2961;47.702;9.410;2023-04-23T10:14:06;18.20;99.90
5870;DHT22;2961;47.702;9.410;2023-04-23T10:16:33;18.40;99.90
5870;DHT22;2961;47.702;9.410;2023-04-23T10:19:03;18.40;99.90
5870;DHT22;2961;47.702;9.410;2023-04-23T10:21:31;18.40;99.90
5870;DHT22;2961;47.702;9.410;2023-04-23T10:24:00;18.40;99.90
5870;DHT22;2961;47.702;9.410;2023-04-23T10:26:29;18.50;99.90
5870;DHT22;2961;47.702;9.410;2023-04-23T10:28:59;18.60;99.90
5870;DHT22;2961;47.702;9.410;2023-04-23T10:31:27;18.60;99.90
5870;DHT22;2961;47.702;9.410;2023-04-23T10:33:57;18.70;99.90
5870;DHT22;2961;47.702;9.410;2023-04-23T10:36:26;18.70;99.90
5870;DHT22;2961;47.702;9.410;2023-04-23T10:38:53;18.40;99.90
5870;DHT22;2961;47.702;9.410;2023-04-23T10:41:21;18.30;99.90
5870;DHT22;2961;47.702;9.410;2023-04-23T10:43:52;18.30;99.90
5870;DHT22;2961;47.702;9.410;2023-04-23T10:46:38;18.30;99.90
5870;DHT22;2961;47.702;9.410;2023-04-23T10:49:15;18.40;99.90
5870;DHT22;2961;47.702;9.410;2023-04-23T10:51:44;18.20;99.90
5870;DHT22;2961;47.702;9.410;2023-04-23T10:54:13;18.00;99.90
5870;DHT22;2961;47.702;9.410;2023-04-23T10:56:41;17.90;99.90
5870;DHT22;2961;47.702;9.410;2023-04-23T10:59:17;17.80;99.90
5870;DHT22;2961;47.702;9.410;2023-04-23T11:01:46;17.90;99.90
5870;DHT22;2961;47.702;9.410;2023-04-23T11:04:21;18.00;99.90
5870;DHT22;2961;47.702;9.410;2023-04-23T11:06:55;18.10;99.90
5870;DHT22;2961;47.702;9.410;2023-04-23T11:09:30;18.20;99.90
5870;DHT22;2961;47.702;9.410;2023-04-23T11:11:58;18.40;99.90
5870;DHT22;2961;47.702;9.410;2023-04-23T11:14:37;18.60;99.90
5870;DHT22;2961;47.702;9.410;2023-04-23T11:17:10;18.60;99.90
5870;DHT22;2961;47.702;9.410;2023-04-23T11:19:37;18.70;99.90
5870;DHT22;2961;47.702;9.410;2023-04-23T11:22:06;18.70;99.90
5870;DHT22;2961;47.702;9.410;2023-04-23T11:24:39;18.70;99.90
5870;DHT22;2961;47.702;9.410;2023-04-23T11:27:08;18.70;99.90
5870;DHT22;2961;47.702;9.410;2023-04-23T11:29:35;18.50;99.90
5870;DHT22;2961;47.702;9.410;2023-04-23T11:32:02;18.40;99.90
5870;DHT22;2961;47.702;9.410;2023-04-23T11:34:32;18.50;99.90
5870;DHT22;2961;47.702;9.410;2023-04-23T11:36:59;18.60;99.90
5870;DHT22;2961;47.702;9.410;2023-04-23T11:39:27;18.70;99.90
5870;DHT22;2961;47.702;9.410;2023-04-23T11:41:54;18.70;99.90
5870;DHT22;2961;47.702;9.410;2023-04-23T11:44:22;18.80;99.90
5870;DHT22;2961;47.702;9.410;2023-04-23T11:46:49;18.50;99.90
5870;DHT22;2961;47.702;9.410;2023-04-23T11:49:16;18.40;99.90
5870;DHT22;2961;47.702;9.410;2023-04-23T11:51:46;18.50;99.90
5870;DHT22;2961;47.702;9.410;2023-04-23T11:54:13;18.70;99.90
5870;DHT22;2961;47.702;9.410;2023-04-23T11:56:41;18.90;99.90
5870;DHT22;2961;47.702;9.410;2023-04-23T11:59:08;18.90;99.90
5870;DHT22;2961;47.702;9.410;2023-04-23T12:01:42;19.00;99.90
5870;DHT22;2961;47.702;9.410;2023-04-23T12:04:10;18.90;99.90
5870;DHT22;2961;47.702;9.410;2023-04-23T12:06:38;18.90;99.90
5870;DHT22;2961;47.702;9.410;2023-04-23T12:09:07;18.90;99.90
5870;DHT22;2961;47.702;9.410;2023-04-23T12:11:35;18.90;99.90
5870;DHT22;2961;47.702;9.410;2023-04-23T12:14:02;18.90;99.90
5870;DHT22;2961;47.702;9.410;2023-04-23T12:16:36;19.00;99.90
5870;DHT22;2961;47.702;9.410;2023-04-23T12:19:06;19.00;99.90
5870;DHT22;2961;47.702;9.410;2023-04-23T12:21:33;19.00;99.90
5870;DHT22;2961;47.702;9.410;2023-04-23T12:24:02;18.80;99.90
5870;DHT22;2961;47.702;9.410;2023-04-23T12:26:32;18.80;99.90
5870;DHT22;2961;47.702;9.410;2023-04-23T12:28:59;18.80;99.90
5870;DHT22;2961;47.702;9.410;2023-04-23T12:31:27;18.90;99.90
5870;DHT22;2961;47.702;9.410;2023-04-23T12:33:57;19.00;99.90
5870;DHT22;2961;47.702;9.410;2023-04-23T12:36:26;19.00;99.90
5870;DHT22;2961;47.702;9.410;2023-04-23T12:41:38;18.70;99.90
5870;DHT22;2961;47.702;9.410;2023-04-23T12:44:04;18.50;99.90
5870;DHT22;2961;47.702;9.410;2023-04-23T12:46:31;18.50;99.90
5870;DHT22;2961;47.702;9.410;2023-04-23T12:48:58;18.50;99.90
5870;DHT22;2961;47.702;9.410;2023-04-23T12:51:25;18.40;99.90
5870;DHT22;2961;47.702;9.410;2023-04-23T12:53:52;18.30;99.90
5870;DHT22;2961;47.702;9.410;2023-04-23T12:56:19;18.30;99.90
5870;DHT22;2961;47.702;9.410;2023-04-23T12:58:47;18.40;99.90
5870;DHT22;2961;47.702;9.410;2023-04-23T13:01:14;18.30;99.90
5870;DHT22;2961;47.702;9.410;2023-04-23T13:03:40;18.20;99.90
5870;DHT22;2961;47.702;9.410;2023-04-23T13:06:07;18.20;99.90
5870;DHT22;2961;47.702;9.410;2023-04-23T13:08:34;18.20;99.90
5870;DHT22;2961;47.702;9.410;2023-04-23T13:11:01;18.20;99.90
5870;DHT22;2961;47.702;9.410;2023-04-23T13:13:28;18.10;99.90
5870;DHT22;2961;47.702;9.410;2023-04-23T13:15:56;18.30;99.90
5870;DHT22;2961;47.702;9.410;2023-04-23T13:18:23;18.30;99.90
5870;DHT22;2961;47.702;9.410;2023-04-23T13:20:50;18.30;99.90
5870;DHT22;2961;47.702;9.410;2023-04-23T13:23:17;18.20;99.90
5870;DHT22;2961;47.702;9.410;2023-04-23T13:25:43;18.20;99.90
5870;DHT22;2961;47.702;9.410;2023-04-23T13:28:10;18.10;99.90
5870;DHT22;2961;47.702;9.410;2023-04-23T13:30:37;18.00;99.90
5870;DHT22;2961;47.702;9.410;2023-04-23T13:33:05;18.10;99.90
5870;DHT22;2961;47.702;9.410;2023-04-23T13:35:32;18.10;99.90
5870;DHT22;2961;47.702;9.410;2023-04-23T13:38:02;18.10;99.90
5870;DHT22;2961;47.702;9.410;2023-04-23T13:40:28;18.10;99.90
5870;DHT22;2961;47.702;9.410;2023-04-23T13:42:55;18.10;99.90
5870;DHT22;2961;47.702;9.410;2023-04-23T13:45:22;18.10;99.90
5870;DHT22;2961;47.702;9.410;2023-04-23T13:47:49;18.20;99.90
5870;DHT22;2961;47.702;9.410;2023-04-23T13:50:17;18.20;99.90
5870;DHT22;2961;47.702;9.410;2023-04-23T13:52:44;18.20;99.90
5870;DHT22;2961;47.702;9.410;2023-04-23T13:55:12;18.30;99.90
5870;DHT22;2961;47.702;9.410;2023-04-23T13:57:39;18.40;99.90
5870;DHT22;2961;47.702;9.410;2023-04-23T14:00:07;18.50;99.90
5870;DHT22;2961;47.702;9.410;2023-04-23T14:02:34;18.60;99.90
5870;DHT22;2961;47.702;9.410;2023-04-23T14:05:00;18.60;99.90
5870;DHT22;2961;47.702;9.410;2023-04-23T14:07:29;18.70;99.90
5870;DHT22;2961;47.702;9.410;2023-04-23T14:09:56;18.80;99.90
5870;DHT22;2961;47.702;9.410;2023-04-23T14:12:23;18.90;99.90
5870;DHT22;2961;47.702;9.410;2023-04-23T14:14:50;19.10;99.90
5870;DHT22;2961;47.702;9.410;2023-04-23T14:17:17;19.20;99.90
5870;DHT22;2961;47.702;9.410;2023-04-23T14:19:44;19.10;99.90
5870;DHT22;2961;47.702;9.410;2023-04-23T14:22:11;19.20;99.90
5870;DHT22;2961;47.702;9.410;2023-04-23T14:24:43;19.20;99.90
5870;DHT22;2961;47.702;9.410;2023-04-23T14:27:10;19.20;99.90
5870;DHT22;2961;47.702;9.410;2023-04-23T14:29:40;19.30;99.90
5870;DHT22;2961;47.702;9.410;2023-04-23T14:32:07;19.30;99.90
5870;DHT22;2961;47.702;9.410;2023-04-23T14:34:33;19.40;99.90
5870;DHT22;2961;47.702;9.410;2023-04-23T14:37:00;19.20;99.90
5870;DHT22;2961;47.702;9.410;2023-04-23T14:39:28;19.10;99.90
5870;DHT22;2961;47.702;9.410;2023-04-23T14:41:56;19.00;99.90
5870;DHT22;2961;47.702;9.410;2023-04-23T14:44:23;18.90;99.90
5870;DHT22;2961;47.702;9.410;2023-04-23T14:46:51;18.70;99.90
5870;DHT22;2961;47.702;9.410;2023-04-23T14:49:18;18.50;99.90
5870;DHT22;2961;47.702;9.410;2023-04-23T14:51:45;18.30;99.90
5870;DHT22;2961;47.702;9.410;2023-04-23T14:54:12;18.10;99.90
5870;DHT22;2961;47.702;9.410;2023-04-23T14:56:39;17.90;99.90
5870;DHT22;2961;47.702;9.410;2023-04-23T14:59:07;17.80;99.90
5870;DHT22;2961;47.702;9.410;2023-04-23T15:01:34;17.60;99.90
5870;DHT22;2961;47.702;9.410;2023-04-23T15:04:01;17.30;99.90
5870;DHT22;2961;47.702;9.410;2023-04-23T15:06:28;17.10;99.90
5870;DHT22;2961;47.702;9.410;2023-04-23T15:08:55;16.80;99.90
5870;DHT22;2961;47.702;9.410;2023-04-23T15:11:22;16.50;99.90
5870;DHT22;2961;47.702;9.410;2023-04-23T15:13:53;16.20;99.90
5870;DHT22;2961;47.702;9.410;2023-04-23T15:16:26;16.00;99.90
5870;DHT22;2961;47.702;9.410;2023-04-23T15:18:55;15.70;99.90
5870;DHT22;2961;47.702;9.410;2023-04-23T15:21:22;15.40;99.90
5870;DHT22;2961;47.702;9.410;2023-04-23T15:23:50;15.10;99.90
5870;DHT22;2961;47.702;9.410;2023-04-23T15:26:17;15.00;99.90
5870;DHT22;2961;47.702;9.410;2023-04-23T15:28:43;14.80;99.90
5870;DHT22;2961;47.702;9.410;2023-04-23T15:31:10;14.80;99.90
5870;DHT22;2961;47.702;9.410;2023-04-23T15:33:39;14.80;99.90
5870;DHT22;2961;47.702;9.410;2023-04-23T15:36:06;14.70;99.90
5870;DHT22;2961;47.702;9.410;2023-04-23T15:38:33;14.70;99.90
5870;DHT22;2961;47.702;9.410;2023-04-23T15:41:00;14.60;99.90
5870;DHT22;2961;47.702;9.410;2023-04-23T15:43:27;14.50;99.90
5870;DHT22;2961;47.702;9.410;2023-04-23T15:45:54;14.40;99.90
5870;DHT22;2961;47.702;9.410;2023-04-23T15:48:23;14.40;99.90
5870;DHT22;2961;47.702;9.410;2023-04-23T15:50:51;14.30;99.90
5870;DHT22;2961;47.702;9.410;2023-04-23T15:53:18;14.30;99.90
5870;DHT22;2961;47.702;9.410;2023-04-23T15:55:47;14.40;99.90
5870;DHT22;2961;47.702;9.410;2023-04-23T15:58:14;14.40;99.90
5870;DHT22;2961;47.702;9.410;2023-04-23T16:00:41;14.20;99.90
5870;DHT22;2961;47.702;9.410;2023-04-23T16:03:08;14.00;99.90
5870;DHT22;2961;47.702;9.410;2023-04-23T16:05:35;13.80;99.90
5870;DHT22;2961;47.702;9.410;2023-04-23T16:08:03;13.60;99.90